createdAt,value
2023-03-21T00:01:53.942Z,10.06
2023-03-21T00:04:28.426Z,10.06
2023-03-21T00:06:56.849Z,9.99
2023-03-21T00:09:23.682Z,10.01
2023-03-21T00:11:50.610Z,9.99
2023-03-21T00:14:19.093Z,9.95
2023-03-21T00:16:51.291Z,9.88
2023-03-21T00:19:22.106Z,9.91
2023-03-21T00:22:06.549Z,9.92
2023-03-21T00:24:35.652Z,9.84
2023-03-21T00:29:49.805Z,9.84
2023-03-21T00:32:18.118Z,9.85
2023-03-21T00:34:58.829Z,9.83
2023-03-21T00:37:29.667Z,9.80
2023-03-21T00:39:56.512Z,9.75
2023-03-21T00:42:24.116Z,9.75
2023-03-21T00:44:50.996Z,9.75
2023-03-21T00:47:17.829Z,9.71
2023-03-21T00:49:44.689Z,9.80
2023-03-21T00:52:18.640Z,9.75
2023-03-21T00:54:49.238Z,9.78
2023-03-21T00:57:16.784Z,9.69
2023-03-21T00:59:43.621Z,9.76
2023-03-21T01:02:15.097Z,9.71
2023-03-21T01:04:42.222Z,9.68
2023-03-21T01:07:09.006Z,9.66
2023-03-21T01:09:35.843Z,9.68
2023-03-21T01:12:04.001Z,9.68
2023-03-21T01:14:30.888Z,9.66
2023-03-21T01:16:57.668Z,9.67
2023-03-21T01:19:48.286Z,9.66
2023-03-21T01:22:15.751Z,9.59
2023-03-21T01:24:52.446Z,9.66
2023-03-21T01:27:22.321Z,9.57
2023-03-21T01:29:49.232Z,9.61
2023-03-21T01:32:16.877Z,9.54
2023-03-21T01:34:43.838Z,9.61
2023-03-21T01:37:10.651Z,9.65
2023-03-21T01:39:37.544Z,9.59
2023-03-21T01:42:04.597Z,9.62
2023-03-21T01:44:31.818Z,9.57
2023-03-21T01:47:10.420Z,9.56
2023-03-21T01:49:48.595Z,9.60
2023-03-21T01:52:35.758Z,9.60
2023-03-21T01:55:07.330Z,9.53
2023-03-21T01:57:51.871Z,9.57
2023-03-21T02:00:25.223Z,9.59
2023-03-21T02:02:58.175Z,9.53
2023-03-21T02:05:40.771Z,9.63
2023-03-21T02:08:08.024Z,9.61
2023-03-21T02:10:36.605Z,9.58
2023-03-21T02:13:08.398Z,9.54
2023-03-21T02:15:42.380Z,9.52
2023-03-21T02:18:37.648Z,9.56
2023-03-21T02:21:10.850Z,9.59
2023-03-21T02:24:26.582Z,9.53
2023-03-21T02:27:14.605Z,9.56
2023-03-21T02:30:37.511Z,9.55
2023-03-21T02:34:03.386Z,9.58
2023-03-21T02:37:11.548Z,9.50
2023-03-21T02:39:53.750Z,9.51
2023-03-21T02:43:00.024Z,9.50
2023-03-21T02:45:57.241Z,9.46
2023-03-21T02:48:41.304Z,9.52
2023-03-21T02:51:16.566Z,9.49
2023-03-21T02:53:55.009Z,9.52
2023-03-21T02:56:33.788Z,9.59
2023-03-21T02:59:01.788Z,9.51
2023-03-21T03:01:29.177Z,9.59
2023-03-21T03:03:56.405Z,9.57
2023-03-21T03:06:29.549Z,9.50
2023-03-21T03:09:11.722Z,9.55
2023-03-21T03:11:43.682Z,9.56
2023-03-21T03:15:02.272Z,9.48
2023-03-21T03:17:43.561Z,9.54
2023-03-21T03:20:33.402Z,9.57
2023-03-21T03:23:30.469Z,9.60
2023-03-21T03:26:12.541Z,9.55
2023-03-21T03:28:46.266Z,9.55
2023-03-21T03:31:22.108Z,9.54
2023-03-21T03:33:54.797Z,9.60
2023-03-21T03:36:32.789Z,9.62
2023-03-21T03:39:04.782Z,9.57
2023-03-21T03:42:03.040Z,9.56
2023-03-21T03:44:26.193Z,9.54
2023-03-21T03:47:29.896Z,9.54
2023-03-21T03:50:13.287Z,9.56
2023-03-21T03:53:18.129Z,9.58
2023-03-21T03:55:46.654Z,9.59
2023-03-21T03:58:22.763Z,9.49
2023-03-21T04:00:52.966Z,9.53
2023-03-21T04:03:19.923Z,9.55
2023-03-21T04:05:46.790Z,9.53
2023-03-21T04:08:15.515Z,9.58
2023-03-21T04:10:42.995Z,9.56
2023-03-21T04:13:11.108Z,9.58
2023-03-21T04:15:38.206Z,9.54
2023-03-21T04:18:05.862Z,9.52
2023-03-21T04:20:37.315Z,9.53
2023-03-21T04:23:05.795Z,9.53
2023-03-21T04:25:44.675Z,9.48
2023-03-21T04:28:14.783Z,9.51
2023-03-21T04:30:51.885Z,9.48
2023-03-21T04:33:26.330Z,9.46
2023-03-21T04:35:56.418Z,9.50
2023-03-21T04:38:25.293Z,9.48
2023-03-21T04:40:52.724Z,9.43
2023-03-21T04:43:19.597Z,9.48
2023-03-21T04:45:46.426Z,9.39
2023-03-21T04:48:14.625Z,9.50
2023-03-21T04:50:41.437Z,9.53
2023-03-21T04:53:08.247Z,9.51
2023-03-21T04:55:37.204Z,9.54
2023-03-21T04:58:04.990Z,9.46
2023-03-21T05:00:32.971Z,9.45
2023-03-21T05:03:00.305Z,9.42
2023-03-21T05:05:27.230Z,9.50
2023-03-21T05:07:54.049Z,9.52
2023-03-21T05:10:20.894Z,9.43
2023-03-21T05:12:47.634Z,9.50
2023-03-21T05:15:14.475Z,9.48
2023-03-21T05:17:42.867Z,9.51
2023-03-21T05:20:11.839Z,9.49
2023-03-21T05:22:40.663Z,9.53
2023-03-21T05:25:09.969Z,9.52
2023-03-21T05:27:37.071Z,9.48
2023-03-21T05:30:09.029Z,9.50
2023-03-21T05:32:36.024Z,9.50
2023-03-21T05:35:03.159Z,9.53
2023-03-21T05:37:29.964Z,9.56
2023-03-21T05:39:56.854Z,9.53
2023-03-21T05:42:23.964Z,9.47
2023-03-21T05:44:51.156Z,9.49
2023-03-21T05:47:18.641Z,9.49
2023-03-21T05:49:47.279Z,9.51
2023-03-21T05:52:14.592Z,9.45
2023-03-21T05:54:42.019Z,9.48
2023-03-21T05:57:09.202Z,9.49
2023-03-21T05:59:36.044Z,9.47
2023-03-21T06:02:03.841Z,9.47
2023-03-21T06:04:31.114Z,9.47
2023-03-21T06:06:57.929Z,9.50
2023-03-21T06:09:26.192Z,9.51
2023-03-21T06:11:55.998Z,9.45
2023-03-21T06:14:24.701Z,9.48
2023-03-21T06:16:54.034Z,9.44
2023-03-21T06:19:22.027Z,9.43
2023-03-21T06:21:50.111Z,9.48
2023-03-21T06:24:18.020Z,9.50
2023-03-21T06:26:46.485Z,9.49
2023-03-21T06:29:13.357Z,9.48
2023-03-21T06:31:40.566Z,9.47
2023-03-21T06:34:07.497Z,9.43
2023-03-21T06:36:34.666Z,9.48
2023-03-21T06:39:01.708Z,9.46
2023-03-21T06:41:28.450Z,9.44
2023-03-21T06:43:55.618Z,9.49
2023-03-21T06:46:22.491Z,9.51
2023-03-21T06:48:49.460Z,9.50
2023-03-21T06:51:16.417Z,9.47
2023-03-21T06:53:44.667Z,9.53
2023-03-21T06:56:13.591Z,9.51
2023-03-21T06:58:41.651Z,9.54
2023-03-21T07:01:09.013Z,9.56
2023-03-21T07:03:35.887Z,9.63
2023-03-21T07:06:14.175Z,9.70
2023-03-21T07:08:41.817Z,9.81
2023-03-21T07:11:09.835Z,9.90
2023-03-21T07:13:37.084Z,10.01
2023-03-21T07:16:04.927Z,10.10
2023-03-21T07:18:31.862Z,10.20
2023-03-21T07:20:59.181Z,10.21
2023-03-21T07:23:27.385Z,10.27
2023-03-21T07:25:54.995Z,10.30
2023-03-21T07:28:23.198Z,10.28
2023-03-21T07:30:59.510Z,10.30
2023-03-21T07:33:27.055Z,10.24
2023-03-21T07:35:58.057Z,10.25
2023-03-21T07:38:26.473Z,10.21
2023-03-21T07:40:54.015Z,10.18
2023-03-21T07:43:20.905Z,10.21
2023-03-21T07:45:47.835Z,10.18
2023-03-21T07:48:15.286Z,10.11
2023-03-21T07:50:42.060Z,10.15
2023-03-21T07:53:09.185Z,10.14
2023-03-21T07:55:36.500Z,10.16
2023-03-21T07:58:04.714Z,10.11
2023-03-21T08:00:32.027Z,10.11
2023-03-21T08:02:59.823Z,10.10
2023-03-21T08:05:35.272Z,10.14
2023-03-21T08:08:03.027Z,10.18
2023-03-21T08:10:30.922Z,10.25
2023-03-21T08:12:58.223Z,10.32
2023-03-21T08:15:25.052Z,10.43
2023-03-21T08:17:52.107Z,10.41
2023-03-21T08:20:22.309Z,10.56
2023-03-21T08:22:49.964Z,10.67
2023-03-21T08:25:19.735Z,10.65
2023-03-21T08:27:48.453Z,10.77
2023-03-21T08:30:22.978Z,10.74
2023-03-21T08:32:50.199Z,10.80
2023-03-21T08:35:19.231Z,10.78
2023-03-21T08:37:46.433Z,10.85
2023-03-21T08:40:18.041Z,10.85
2023-03-21T08:42:46.756Z,10.89
2023-03-21T08:45:16.272Z,10.85
2023-03-21T08:47:43.588Z,10.90
2023-03-21T08:50:15.718Z,10.91
2023-03-21T08:52:43.238Z,10.98
2023-03-21T08:55:11.150Z,11.03
2023-03-21T08:57:38.248Z,11.14
2023-03-21T09:00:13.273Z,11.20
2023-03-21T09:02:51.592Z,11.19
2023-03-21T09:05:19.137Z,11.40
2023-03-21T09:07:46.311Z,11.40
2023-03-21T09:10:21.141Z,11.54
2023-03-21T09:12:51.800Z,11.58
2023-03-21T09:15:22.307Z,11.65
2023-03-21T09:17:53.146Z,11.68
2023-03-21T09:20:26.501Z,11.65
2023-03-21T09:22:54.431Z,11.84
2023-03-21T09:25:21.661Z,11.93
2023-03-21T09:27:48.931Z,12.03
2023-03-21T09:30:26.213Z,12.08
2023-03-21T09:32:55.862Z,12.29
2023-03-21T09:35:24.950Z,12.45
2023-03-21T09:37:51.980Z,12.62
2023-03-21T09:41:13.456Z,12.74
2023-03-21T09:44:27.922Z,12.88
2023-03-21T09:47:06.431Z,12.90
2023-03-21T09:49:42.295Z,12.84
2023-03-21T09:52:48.153Z,12.76
2023-03-21T09:55:25.908Z,12.61
2023-03-21T09:58:05.164Z,12.48
2023-03-21T10:00:42.387Z,12.31
2023-03-21T10:03:27.658Z,12.29
2023-03-21T10:06:00.813Z,12.43
2023-03-21T10:08:37.646Z,12.55
2023-03-21T10:11:14.254Z,12.73
2023-03-21T10:13:48.729Z,12.87
2023-03-21T10:16:38.127Z,13.00
2023-03-21T10:19:14.411Z,13.17
2023-03-21T10:22:03.596Z,13.30
2023-03-21T10:24:34.615Z,13.53
2023-03-21T10:27:03.608Z,13.65
2023-03-21T10:29:43.463Z,13.76
2023-03-21T10:32:14.378Z,13.89
2023-03-21T10:34:47.145Z,14.06
2023-03-21T10:37:14.782Z,14.08
2023-03-21T10:39:45.850Z,14.13
2023-03-21T10:42:24.886Z,13.96
2023-03-21T10:44:55.283Z,14.06
2023-03-21T10:47:30.593Z,14.02
2023-03-21T10:50:09.574Z,13.88
2023-03-21T10:52:49.077Z,13.59
2023-03-21T10:55:23.383Z,13.64
2023-03-21T10:57:59.049Z,13.67
2023-03-21T11:00:34.392Z,13.70
2023-03-21T11:03:03.678Z,13.71
2023-03-21T11:05:41.640Z,13.67
2023-03-21T11:08:19.561Z,13.68
2023-03-21T11:11:03.198Z,13.75
2023-03-21T11:13:43.376Z,13.77
2023-03-21T11:16:11.185Z,13.80
2023-03-21T11:18:50.464Z,13.71
2023-03-21T11:21:17.957Z,13.64
2023-03-21T11:23:52.959Z,13.59
2023-03-21T11:26:27.511Z,13.56
2023-03-21T11:28:55.424Z,13.54
2023-03-21T11:31:25.119Z,13.47
2023-03-21T11:33:57.248Z,13.56
2023-03-21T11:36:24.270Z,13.60
2023-03-21T11:38:53.506Z,13.57
2023-03-21T11:41:30.281Z,13.72
2023-03-21T11:43:59.404Z,13.75
2023-03-21T11:46:32.286Z,13.84
2023-03-21T11:49:01.525Z,13.92
2023-03-21T11:52:02.857Z,13.97
2023-03-21T11:55:18.170Z,14.00
2023-03-21T11:58:13.485Z,14.01
2023-03-21T12:01:02.966Z,14.12
2023-03-21T12:04:33.182Z,14.29
2023-03-21T12:07:14.542Z,14.35
2023-03-21T12:09:54.441Z,14.35
2023-03-21T12:12:38.797Z,14.30
2023-03-21T12:15:33.118Z,14.28
2023-03-21T12:18:29.899Z,14.23
2023-03-21T12:21:05.422Z,14.13
2023-03-21T12:24:02.494Z,14.03
2023-03-21T12:26:35.693Z,13.93
2023-03-21T12:29:40.331Z,13.95
2023-03-21T12:32:29.361Z,14.01
2023-03-21T12:35:10.844Z,14.03
2023-03-21T12:38:20.544Z,14.20
2023-03-21T12:41:04.326Z,14.33
2023-03-21T12:43:32.402Z,14.37
2023-03-21T12:46:04.607Z,14.28
2023-03-21T12:48:47.938Z,14.29
2023-03-21T12:51:24.529Z,14.13
2023-03-21T12:54:05.031Z,14.13
2023-03-21T12:56:45.593Z,14.15
2023-03-21T12:59:31.146Z,14.14
2023-03-21T13:02:09.090Z,14.01
2023-03-21T13:04:48.093Z,14.11
2023-03-21T13:07:20.232Z,14.13
2023-03-21T13:09:48.362Z,14.12
2023-03-21T13:12:46.225Z,14.10
2023-03-21T13:15:34.277Z,14.08
2023-03-21T13:18:19.070Z,14.22
2023-03-21T13:21:13.700Z,14.14
2023-03-21T13:23:40.788Z,14.25
2023-03-21T13:26:12.600Z,14.29
2023-03-21T13:28:41.704Z,14.39
2023-03-21T13:31:24.168Z,14.45
2023-03-21T13:33:54.593Z,14.55
2023-03-21T13:36:29.044Z,14.58
2023-03-21T13:39:04.463Z,14.51
2023-03-21T13:41:43.850Z,14.45
2023-03-21T13:44:36.521Z,14.28
2023-03-21T13:47:07.384Z,14.23
2023-03-21T13:49:38.910Z,14.18
2023-03-21T13:52:28.289Z,14.22
2023-03-21T13:54:57.641Z,14.27
2023-03-21T13:57:27.430Z,14.39
2023-03-21T14:00:25.770Z,14.26
2023-03-21T14:03:13.785Z,14.18
2023-03-21T14:05:41.706Z,14.05
2023-03-21T14:08:24.829Z,14.13
2023-03-21T14:11:01.674Z,14.19
2023-03-21T14:13:33.080Z,14.38
2023-03-21T14:16:12.865Z,14.40
2023-03-21T14:18:55.012Z,14.44
2023-03-21T14:21:26.681Z,14.54
2023-03-21T14:24:20.518Z,14.56
2023-03-21T14:26:54.196Z,14.54
2023-03-21T14:29:31.842Z,14.55
2023-03-21T14:32:00.408Z,14.43
2023-03-21T14:34:30.826Z,14.41
2023-03-21T14:36:59.077Z,14.27
2023-03-21T14:39:33.184Z,14.22
2023-03-21T14:42:10.912Z,14.15
2023-03-21T14:44:58.111Z,14.07
2023-03-21T14:47:28.872Z,13.95
2023-03-21T14:49:57.440Z,13.88
2023-03-21T14:52:34.903Z,13.72
2023-03-21T14:55:07.520Z,13.69
2023-03-21T14:57:34.489Z,13.66
2023-03-21T15:00:13.064Z,13.55
2023-03-21T15:02:42.332Z,13.54
2023-03-21T15:05:14.387Z,13.48
2023-03-21T15:07:41.280Z,13.40
2023-03-21T15:10:18.221Z,13.45
2023-03-21T15:13:00.516Z,13.42
2023-03-21T15:15:29.613Z,13.44
2023-03-21T15:18:04.462Z,13.52
2023-03-21T15:20:36.057Z,13.44
2023-03-21T15:23:10.828Z,13.50
2023-03-21T15:25:39.541Z,13.49
2023-03-21T15:28:06.764Z,13.57
2023-03-21T15:30:34.656Z,13.63
2023-03-21T15:33:10.771Z,13.66
2023-03-21T15:35:46.133Z,13.53
2023-03-21T15:38:31.648Z,13.37
2023-03-21T15:41:34.137Z,13.28
2023-03-21T15:44:10.258Z,13.32
2023-03-21T15:46:50.052Z,13.21
2023-03-21T15:49:16.828Z,13.21
2023-03-21T15:51:52.117Z,13.24
2023-03-21T15:54:37.211Z,13.15
2023-03-21T15:57:23.147Z,13.16
2023-03-21T15:59:51.187Z,13.15
2023-03-21T16:02:23.228Z,13.12
2023-03-21T16:05:32.522Z,13.10
2023-03-21T16:08:19.507Z,13.07
2023-03-21T16:10:46.544Z,13.02
2023-03-21T16:13:16.725Z,12.95
2023-03-21T16:15:43.996Z,12.82
2023-03-21T16:18:17.211Z,12.81
2023-03-21T16:20:46.938Z,12.83
2023-03-21T16:23:15.864Z,12.81
2023-03-21T16:25:47.121Z,12.81
2023-03-21T16:28:17.633Z,12.72
2023-03-21T16:30:45.749Z,12.65
2023-03-21T16:33:13.709Z,12.61
2023-03-21T16:35:41.623Z,12.61
2023-03-21T16:38:13.003Z,12.58
2023-03-21T16:40:42.465Z,12.48
2023-03-21T16:43:11.230Z,12.56
2023-03-21T16:45:38.259Z,12.52
2023-03-21T16:48:05.868Z,12.46
2023-03-21T16:50:41.828Z,12.31
2023-03-21T16:53:09.778Z,12.37
2023-03-21T16:55:37.631Z,12.25
2023-03-21T16:58:05.663Z,12.29
2023-03-21T17:00:32.905Z,12.20
2023-03-21T17:03:03.271Z,12.27
2023-03-21T17:05:33.806Z,12.23
2023-03-21T17:08:04.698Z,12.24
2023-03-21T17:10:32.977Z,12.27
2023-03-21T17:12:59.964Z,12.24
2023-03-21T17:15:27.097Z,12.22
2023-03-21T17:17:55.864Z,12.21
2023-03-21T17:20:38.024Z,12.19
2023-03-21T17:23:05.150Z,12.19
2023-03-21T17:25:31.952Z,12.18
2023-03-21T17:27:59.139Z,12.14
2023-03-21T17:30:35.633Z,12.07
2023-03-21T17:33:02.902Z,12.06
2023-03-21T17:35:29.792Z,12.05
2023-03-21T17:37:58.777Z,11.95
2023-03-21T17:40:29.794Z,11.94
2023-03-21T17:42:58.151Z,11.78
2023-03-21T17:45:26.019Z,11.94
2023-03-21T17:47:55.100Z,11.86
2023-03-21T17:50:26.528Z,11.80
2023-03-21T17:52:53.657Z,11.81
2023-03-21T17:55:21.436Z,11.82
2023-03-21T17:57:49.464Z,11.77
2023-03-21T18:00:22.972Z,11.77
2023-03-21T18:02:51.874Z,11.68
2023-03-21T18:05:21.698Z,11.64
2023-03-21T18:10:37.247Z,11.64
2023-03-21T18:13:04.430Z,11.63
2023-03-21T18:15:31.478Z,11.56
2023-03-21T18:17:59.212Z,11.54
2023-03-21T18:20:49.794Z,11.36
2023-03-21T18:23:15.528Z,11.37
2023-03-21T18:25:42.521Z,11.30
2023-03-21T18:28:11.875Z,11.36
2023-03-21T18:33:27.622Z,11.33
2023-03-21T18:35:59.075Z,11.30
2023-03-21T18:38:29.680Z,11.23
2023-03-21T18:40:56.847Z,11.22
2023-03-21T18:46:12.098Z,11.15
2023-03-21T18:48:39.461Z,11.16
2023-03-21T18:51:06.611Z,11.08
2023-03-21T18:53:33.654Z,11.11
2023-03-21T18:56:00.877Z,11.07
2023-03-21T18:58:29.375Z,10.99
2023-03-21T19:00:59.726Z,11.00
2023-03-21T19:03:35.730Z,11.00
2023-03-21T19:06:05.942Z,10.97
2023-03-21T19:08:34.940Z,10.97
2023-03-21T19:11:05.999Z,10.91
2023-03-21T19:13:34.133Z,10.89
2023-03-21T19:16:02.590Z,10.95
2023-03-21T19:21:19.267Z,10.79
2023-03-21T19:26:33.596Z,10.78
2023-03-21T19:29:00.441Z,10.76
2023-03-21T19:31:27.653Z,10.82
2023-03-21T19:33:54.556Z,10.79
2023-03-21T19:36:23.297Z,10.74
2023-03-21T19:38:51.378Z,10.70
2023-03-21T19:41:20.332Z,10.59
2023-03-21T19:43:54.523Z,10.63
2023-03-21T19:46:25.372Z,10.36
2023-03-21T19:48:56.564Z,10.48
2023-03-21T19:51:29.677Z,10.42
2023-03-21T19:53:58.857Z,10.40
2023-03-21T19:56:27.668Z,10.34
2023-03-21T19:58:57.765Z,10.36
2023-03-21T20:01:25.519Z,10.22
2023-03-21T20:03:53.028Z,10.28
2023-03-21T20:06:22.353Z,10.23
2023-03-21T20:09:47.122Z,10.08
2023-03-21T20:11:37.678Z,10.20
2023-03-21T20:14:05.498Z,10.17
2023-03-21T20:16:35.849Z,10.19
2023-03-21T20:19:06.217Z,10.15
2023-03-21T20:21:44.465Z,10.10
2023-03-21T20:24:16.606Z,10.13
2023-03-21T20:26:45.880Z,10.01
2023-03-21T20:32:01.232Z,10.06
2023-03-21T20:34:29.397Z,10.06
2023-03-21T20:36:58.573Z,10.07
2023-03-21T20:39:27.951Z,10.06
2023-03-21T20:41:55.534Z,10.07
2023-03-21T20:47:09.461Z,9.99
2023-03-21T20:49:37.018Z,10.04
2023-03-21T20:54:54.257Z,9.90
2023-03-21T20:57:21.479Z,10.00
2023-03-21T20:59:48.530Z,10.04
2023-03-21T21:02:16.310Z,10.00
2023-03-21T21:05:03.530Z,10.05
2023-03-21T21:07:30.099Z,10.03
2023-03-21T21:09:57.860Z,10.02
2023-03-21T21:12:28.724Z,10.02
2023-03-21T21:14:56.742Z,10.01
2023-03-21T21:17:40.655Z,10.02
2023-03-21T21:20:18.297Z,10.01
2023-03-21T21:23:00.107Z,10.02
2023-03-21T21:25:29.190Z,9.99
2023-03-21T21:27:56.375Z,9.99
2023-03-21T21:30:23.393Z,9.97
2023-03-21T21:32:50.501Z,9.97
2023-03-21T21:35:19.681Z,10.03
2023-03-21T21:37:47.131Z,10.05
2023-03-21T21:40:16.899Z,10.03
2023-03-21T21:42:44.817Z,10.01
2023-03-21T21:45:13.523Z,10.00
2023-03-21T21:47:40.991Z,9.94
2023-03-21T21:50:08.861Z,10.00
2023-03-21T21:52:37.535Z,10.04
2023-03-21T21:55:06.673Z,10.04
2023-03-21T21:57:34.769Z,10.07
2023-03-21T22:00:06.848Z,10.08
2023-03-21T22:02:34.404Z,10.11
2023-03-21T22:05:01.233Z,10.10
2023-03-21T22:07:28.552Z,10.05
2023-03-21T22:09:55.405Z,10.08
2023-03-21T22:12:22.242Z,10.01
2023-03-21T22:14:49.267Z,10.00
2023-03-21T22:17:16.464Z,10.09
2023-03-21T22:19:46.257Z,10.06
2023-03-21T22:22:22.892Z,10.04
2023-03-21T22:24:50.608Z,10.08
2023-03-21T22:27:17.985Z,10.10
2023-03-21T22:29:45.009Z,10.00
2023-03-21T22:32:11.862Z,10.07
2023-03-21T22:34:38.718Z,10.03
2023-03-21T22:37:05.693Z,9.97
2023-03-21T22:39:32.477Z,10.06
2023-03-21T22:42:01.510Z,10.03
2023-03-21T22:44:34.653Z,10.04
2023-03-21T22:47:06.970Z,9.94
2023-03-21T22:49:34.069Z,10.05
2023-03-21T22:52:03.411Z,10.02
2023-03-21T22:54:31.170Z,10.04
2023-03-21T22:56:59.022Z,10.03
2023-03-21T22:59:26.496Z,10.04
2023-03-21T23:01:53.472Z,10.10
2023-03-21T23:04:20.628Z,10.05
2023-03-21T23:06:47.536Z,10.05
2023-03-21T23:09:15.180Z,10.07
2023-03-21T23:11:43.134Z,10.03
2023-03-21T23:14:10.598Z,10.03
2023-03-21T23:16:38.547Z,10.04
2023-03-21T23:19:06.537Z,10.03
2023-03-21T23:21:35.323Z,9.99
2023-03-21T23:24:02.732Z,9.97
2023-03-21T23:26:29.512Z,9.98
2023-03-21T23:28:56.441Z,9.97
2023-03-21T23:31:27.022Z,10.00
2023-03-21T23:33:57.792Z,9.98
2023-03-21T23:36:24.791Z,9.98
2023-03-21T23:38:51.696Z,10.00
2023-03-21T23:41:23.292Z,9.95
2023-03-21T23:43:51.210Z,9.98
2023-03-21T23:46:19.298Z,9.92
2023-03-21T23:48:47.457Z,9.95
2023-03-21T23:51:17.410Z,9.97
2023-03-21T23:53:46.881Z,9.93
2023-03-21T23:56:21.213Z,9.91
2023-03-21T23:58:52.193Z,9.91
